Bookmark and Share
Track history (hours):
 

Vanquish

Last reported at 2014-Apr-24 18:33 UTC. Time now 2014-Apr-24 19:43 UTC.
Position N 54°02' W 006°08'.

MMSI: 246138952.

NotesDate/timePositionNaut miles runAvg speedWind from/ knotsBaromVisibWave heightAir tempDewpointWater temp
2014-Apr-24 18:33N 54°02' W 006°08'1412.7
2014-Apr-24 17:26N 53°49' W 005°57'17310.7
2014-Apr-24 01:17N 51°22' W 003°28'912.0
2014-Apr-24 00:33N 51°23' W 003°14'1111.3
2014-Apr-23 23:33N 51°26' W 002°56'9 9.4
2014-Apr-23 22:33N 51°30' W 002°43'0 0.3
2014-Apr-23 21:33N 51°30' W 002°42'0 0.0
2014-Apr-23 20:33N 51°30' W 002°42'0 0.0
2014-Apr-23 19:33N 51°30' W 002°42'0 0.0
2014-Apr-23 18:30N 51°30' W 002°42'0 0.0
2014-Apr-23 17:33N 51°30' W 002°42'0 0.0
2014-Apr-23 16:33N 51°30' W 002°42'0 0.0
2014-Apr-23 15:33N 51°30' W 002°42'0 0.0
2014-Apr-23 14:33N 51°30' W 002°42'0 0.0
2014-Apr-23 13:33N 51°30' W 002°42'0 0.0
2014-Apr-23 12:33N 51°30' W 002°42'0 0.0
2014-Apr-23 11:33N 51°30' W 002°42'0 0.0
2014-Apr-23 10:33N 51°30' W 002°42'0 0.0
2014-Apr-23 09:33N 51°30' W 002°42'0 0.0
2014-Apr-23 08:33N 51°30' W 002°42'0 0.0
2014-Apr-23 07:33N 51°30' W 002°42'0 0.0
2014-Apr-23 06:33N 51°30' W 002°42'0 0.0
2014-Apr-23 05:33N 51°30' W 002°42'0 0.0
2014-Apr-23 04:33N 51°30' W 002°42'0 0.0
2014-Apr-23 03:33N 51°30' W 002°42'0 0.0
2014-Apr-23 02:33N 51°30' W 002°42'0 0.0
2014-Apr-23 01:33N 51°30' W 002°42'0 0.0
2014-Apr-23 00:33N 51°30' W 002°42'0 0.0
2014-Apr-22 23:33N 51°30' W 002°42'0 0.0
2014-Apr-22 22:33N 51°30' W 002°42'0 0.0
2014-Apr-22 21:33N 51°30' W 002°42'0 0.0
2014-Apr-22 20:33N 51°30' W 002°42'0 0.0
2014-Apr-22 19:33N 51°30' W 002°42'0 0.0
2014-Apr-22 18:33N 51°30' W 002°42'0 0.0
2014-Apr-22 17:33N 51°30' W 002°42'0 0.0
2014-Apr-22 16:33N 51°30' W 002°42'0 0.0
2014-Apr-22 15:33N 51°30' W 002°42'0 0.0
2014-Apr-22 14:33N 51°30' W 002°42'0 0.0
2014-Apr-22 13:33N 51°30' W 002°42'0 0.3
2014-Apr-22 12:33N 51°30' W 002°43'1 1.3
2014-Apr-22 11:33N 51°30' W 002°45'1414.2
2014-Apr-22 10:33N 51°24' W 003°05'1111.2
2014-Apr-22 09:33N 51°19' W 003°21'96 7.9
2014-Apr-21 21:22N 52°12' W 005°31'1212.0
2014-Apr-21 20:22N 52°24' W 005°32'2513.9
2014-Apr-21 18:33N 52°49' W 005°34'2914.3
2014-Apr-21 16:33N 53°17' W 005°41'2612.5
2014-Apr-21 14:31N 53°42' W 005°53'1212.1
2014-Apr-21 13:33N 53°53' W 005°59'1110.7
2014-Apr-21 12:34N 54°02' W 006°08'1 0.1
2014-Apr-20 15:34N 54°02' W 006°06'1111.2
2014-Apr-20 14:33N 53°51' W 005°58'5412.7
2014-Apr-20 10:20N 52°60' W 005°34'133 9.6
2014-Apr-19 20:25N 51°26' W 003°00'910.6
2014-Apr-19 19:34N 51°30' W 002°47'3 3.0
2014-Apr-19 18:33N 51°30' W 002°42'0 0.0
2014-Apr-19 17:32N 51°30' W 002°42'0 0.0
2014-Apr-19 16:32N 51°30' W 002°42'0 0.0
2014-Apr-19 15:32N 51°30' W 002°42'0 0.0
2014-Apr-19 14:32N 51°30' W 002°42'0 0.0
2014-Apr-19 13:32N 51°30' W 002°42'0 0.0
2014-Apr-19 12:32N 51°30' W 002°42'0 0.0
2014-Apr-19 11:32N 51°30' W 002°42'0 0.0
2014-Apr-19 10:32N 51°30' W 002°42'0 0.0
2014-Apr-19 09:32N 51°30' W 002°42'0 0.0
2014-Apr-19 08:32N 51°30' W 002°42'0 0.0
2014-Apr-19 07:32N 51°30' W 002°42'0 0.0
2014-Apr-19 06:32N 51°30' W 002°42'0 0.0
2014-Apr-19 05:32N 51°30' W 002°42'0 0.0
2014-Apr-19 04:32N 51°30' W 002°42'0 0.0
2014-Apr-19 03:32N 51°30' W 002°42'0 0.0
2014-Apr-19 02:32N 51°30' W 002°42'0 0.0
2014-Apr-19 01:32N 51°30' W 002°42'0 0.0
2014-Apr-19 00:32N 51°30' W 002°42'0 0.0
2014-Apr-18 23:32N 51°30' W 002°42'0 0.0
2014-Apr-18 22:32N 51°30' W 002°42'0 0.0
2014-Apr-18 21:32N 51°30' W 002°42'0 0.0
2014-Apr-18 20:32N 51°30' W 002°42'0 0.4
2014-Apr-18 19:33N 51°30' W 002°43'10 9.9
2014-Apr-18 18:34N 51°27' W 002°58'109 8.8
2014-Apr-18 06:08N 52°21' W 005°32'4315.3
2014-Apr-18 03:20N 53°04' W 005°35'3214.6
2014-Apr-18 01:08N 53°35' W 005°50'813.1
2014-Apr-18 00:32N 53°42' W 005°53'1312.9
2014-Apr-17 23:33N 53°55' W 005°59'1111.1
2014-Apr-17 22:31N 54°04' W 006°11'5 0.6
2014-Apr-17 13:33N 54°01' W 006°04'1111.2
2014-Apr-17 12:33N 53°50' W 005°57'7614.2
2014-Apr-17 07:11N 52°35' W 005°33'11210.4
2014-Apr-16 20:23N 51°23' W 003°14'1012.4
2014-Apr-16 19:34N 51°26' W 002°59'1110.5
2014-Apr-16 18:34N 51°30' W 002°43'0 0.5
2014-Apr-16 17:33N 51°30' W 002°42'0 0.0
2014-Apr-16 16:33N 51°30' W 002°42'0 0.0
2014-Apr-16 15:33N 51°30' W 002°42'0 0.0
2014-Apr-16 14:33N 51°30' W 002°42'0 0.0
2014-Apr-16 13:33N 51°30' W 002°42'0 0.0
2014-Apr-16 12:33N 51°30' W 002°42'0 0.0
2014-Apr-16 11:33N 51°30' W 002°42'0 0.0
2014-Apr-16 10:33N 51°30' W 002°42'0 0.0
2014-Apr-16 09:33N 51°30' W 002°42'0 0.0
2014-Apr-16 08:33N 51°30' W 002°42'0 0.0
2014-Apr-16 07:33N 51°30' W 002°42'0 0.0
2014-Apr-16 06:33N 51°30' W 002°42'0 0.0
2014-Apr-16 05:33N 51°30' W 002°42'0 0.0
2014-Apr-16 04:33N 51°30' W 002°42'0 0.0
2014-Apr-16 03:33N 51°30' W 002°42'0 0.0
2014-Apr-16 02:33N 51°30' W 002°42'0 0.0
2014-Apr-16 01:33N 51°30' W 002°42'0 0.0
2014-Apr-16 00:33N 51°30' W 002°42'0 0.0
2014-Apr-15 23:33N 51°30' W 002°42'0 0.0
2014-Apr-15 22:33N 51°30' W 002°42'0 0.0
2014-Apr-15 21:33N 51°30' W 002°42'0 0.0
2014-Apr-15 20:33N 51°30' W 002°42'0 0.0
2014-Apr-15 19:33N 51°30' W 002°42'0 0.0
2014-Apr-15 18:33N 51°30' W 002°42'0 0.2
2014-Apr-15 17:33N 51°30' W 002°42'1 0.6
2014-Apr-15 16:33N 51°31' W 002°43'1313.1
2014-Apr-15 15:33N 51°25' W 003°02'104 8.0
2014-Apr-15 02:30N 52°13' W 005°31'1413.7
2014-Apr-15 01:30N 52°27' W 005°32'5614.0
2014-Apr-14 21:30N 53°23' W 005°44'2211.5
2014-Apr-14 19:33N 53°44' W 005°54'1212.0
2014-Apr-14 18:33N 53°56' W 005°60'  

Dump ship's entire track history

sailing weather and tide predictions

Vanquish — PHCU — position and weather